createdAt,value
2017-12-22T00:01:35.678Z,21.30
2017-12-22T00:04:03.202Z,19.95
2017-12-22T00:06:30.716Z,20.73
2017-12-22T00:08:58.204Z,21.77
2017-12-22T00:11:25.757Z,20.60
2017-12-22T00:13:53.374Z,20.67
2017-12-22T00:16:21.040Z,21.65
2017-12-22T00:18:48.654Z,21.85
2017-12-22T00:21:16.230Z,20.02
2017-12-22T00:23:43.816Z,19.17
2017-12-22T00:26:11.451Z,20.48
2017-12-22T00:28:39.012Z,18.17
2017-12-22T00:31:06.482Z,20.25
2017-12-22T00:33:34.016Z,17.02
2017-12-22T00:36:01.582Z,17.67
2017-12-22T00:38:29.070Z,18.80
2017-12-22T00:40:56.636Z,16.48
2017-12-22T00:43:24.190Z,20.25
2017-12-22T00:46:02.425Z,17.70
2017-12-22T00:48:29.929Z,17.17
2017-12-22T00:50:57.427Z,18.58
2017-12-22T00:53:24.913Z,18.92
2017-12-22T00:55:52.418Z,17.23
2017-12-22T00:58:19.915Z,16.85
2017-12-22T01:00:47.642Z,17.87
2017-12-22T01:03:15.814Z,15.63
2017-12-22T01:05:43.538Z,16.48
2017-12-22T01:08:11.196Z,16.55
2017-12-22T01:10:38.750Z,16.92
2017-12-22T01:13:06.331Z,15.68
2017-12-22T01:15:39.662Z,16.73
2017-12-22T01:18:12.713Z,15.30
2017-12-22T01:20:40.434Z,15.85
2017-12-22T01:23:08.730Z,18.70
2017-12-22T01:25:36.660Z,18.95
2017-12-22T01:28:04.370Z,19.67
2017-12-22T01:30:31.953Z,17.20
2017-12-22T01:32:59.526Z,16.42
2017-12-22T01:35:27.191Z,16.90
2017-12-22T01:37:54.789Z,18.73
2017-12-22T01:40:22.315Z,16.20
2017-12-22T01:42:49.883Z,19.45
2017-12-22T01:45:17.543Z,18.80
2017-12-22T01:47:45.121Z,17.55
2017-12-22T01:50:12.632Z,18.05
2017-12-22T01:52:40.121Z,18.77
2017-12-22T01:55:07.730Z,16.90
2017-12-22T01:57:35.323Z,18.17
2017-12-22T02:00:03.719Z,17.15
2017-12-22T02:02:32.150Z,18.87
2017-12-22T02:04:59.797Z,18.12
2017-12-22T02:07:27.405Z,17.90
2017-12-22T02:09:55.391Z,14.02
2017-12-22T02:12:23.187Z,13.95
2017-12-22T02:14:50.860Z,13.60
2017-12-22T02:17:18.441Z,14.75
2017-12-22T02:19:45.999Z,15.02
2017-12-22T02:22:13.491Z,11.40
2017-12-22T02:24:41.771Z,11.35
2017-12-22T02:27:09.309Z,11.15
2017-12-22T02:29:36.832Z,11.18
2017-12-22T02:32:04.364Z,9.40
2017-12-22T02:34:31.996Z,10.32
2017-12-22T02:36:59.572Z,8.98
2017-12-22T02:39:27.079Z,11.23
2017-12-22T02:41:54.619Z,9.50
2017-12-22T02:44:22.163Z,10.40
2017-12-22T02:46:50.570Z,9.00
2017-12-22T02:49:18.098Z,10.27
2017-12-22T02:51:46.380Z,8.88
2017-12-22T02:54:13.925Z,9.60
2017-12-22T02:56:41.494Z,8.75
2017-12-22T02:59:10.288Z,8.73
2017-12-22T03:01:38.666Z,10.50
2017-12-22T03:04:06.162Z,8.60
2017-12-22T03:06:33.666Z,8.38
2017-12-22T03:09:01.153Z,9.18
2017-12-22T03:11:28.714Z,9.05
2017-12-22T03:13:56.248Z,9.88
2017-12-22T03:16:24.534Z,10.18
2017-12-22T03:18:52.848Z,8.30
2017-12-22T03:21:20.515Z,9.43
2017-12-22T03:23:48.202Z,7.78
2017-12-22T03:26:15.739Z,9.40
2017-12-22T03:28:43.301Z,10.15
2017-12-22T03:31:10.797Z,9.70
2017-12-22T03:33:38.471Z,8.93
2017-12-22T03:36:07.650Z,10.88
2017-12-22T03:38:35.248Z,8.90
2017-12-22T03:41:02.827Z,9.38
2017-12-22T03:43:30.459Z,6.75
2017-12-22T03:45:58.012Z,8.23
2017-12-22T03:48:25.553Z,9.55
2017-12-22T03:50:53.220Z,9.15
2017-12-22T03:53:21.499Z,9.68
2017-12-22T03:55:49.061Z,11.50
2017-12-22T03:58:16.601Z,12.45
2017-12-22T04:00:44.235Z,11.75
2017-12-22T04:03:11.745Z,12.00
2017-12-22T04:05:40.014Z,13.77
2017-12-22T04:08:07.551Z,14.60
2017-12-22T04:10:35.044Z,13.05
2017-12-22T04:13:02.756Z,14.85
2017-12-22T04:15:30.378Z,15.60
2017-12-22T04:17:57.892Z,17.60
2017-12-22T04:20:25.539Z,16.62
2017-12-22T04:22:53.061Z,16.62
2017-12-22T04:25:20.536Z,16.42
2017-12-22T04:27:48.050Z,16.77
2017-12-22T04:30:15.556Z,16.87
2017-12-22T04:32:43.183Z,17.67
2017-12-22T04:35:10.714Z,16.92
2017-12-22T04:37:38.263Z,19.83
2017-12-22T04:40:06.594Z,17.30
2017-12-22T04:42:34.119Z,16.58
2017-12-22T04:45:01.754Z,18.05
2017-12-22T04:47:29.277Z,17.95
2017-12-22T04:49:56.766Z,15.80
2017-12-22T04:52:24.378Z,18.25
2017-12-22T04:54:51.906Z,18.12
2017-12-22T04:57:19.637Z,17.70
2017-12-22T04:59:47.209Z,18.65
2017-12-22T05:02:14.800Z,17.35
2017-12-22T05:04:43.127Z,17.05
2017-12-22T05:07:10.716Z,16.17
2017-12-22T05:09:39.985Z,15.10
2017-12-22T05:12:07.569Z,15.95
2017-12-22T05:14:35.132Z,14.60
2017-12-22T05:17:03.601Z,15.23
2017-12-22T05:19:31.241Z,15.18
2017-12-22T05:21:58.978Z,14.50
2017-12-22T05:24:27.442Z,15.13
2017-12-22T05:26:55.175Z,14.15
2017-12-22T05:29:22.917Z,15.50
2017-12-22T05:31:51.333Z,15.85
2017-12-22T05:34:18.846Z,16.65
2017-12-22T05:36:46.331Z,14.90
2017-12-22T05:39:13.888Z,14.40
2017-12-22T05:41:41.393Z,13.00
2017-12-22T05:44:08.895Z,13.68
2017-12-22T05:46:36.375Z,15.75
2017-12-22T05:49:03.926Z,15.25
2017-12-22T05:51:31.452Z,14.52
2017-12-22T05:53:59.026Z,13.75
2017-12-22T05:56:26.549Z,13.02
2017-12-22T05:58:54.770Z,15.25
2017-12-22T06:01:22.322Z,13.73
2017-12-22T06:03:51.131Z,14.02
2017-12-22T06:06:18.794Z,14.35
2017-12-22T06:08:46.544Z,14.02
2017-12-22T06:11:14.061Z,14.20
2017-12-22T06:13:45.396Z,14.65
2017-12-22T06:16:13.357Z,15.50
2017-12-22T06:18:44.016Z,13.93
2017-12-22T06:21:11.605Z,13.40
2017-12-22T06:23:39.253Z,15.13
2017-12-22T06:26:07.031Z,14.50
2017-12-22T06:28:34.910Z,15.23
2017-12-22T06:31:02.808Z,14.82
2017-12-22T06:33:31.399Z,13.52
2017-12-22T06:35:59.339Z,15.45
2017-12-22T06:38:27.024Z,15.30
2017-12-22T06:40:55.704Z,16.83
2017-12-22T06:43:23.425Z,16.40
2017-12-22T06:45:58.996Z,14.10
2017-12-22T06:51:32.146Z,14.18
2017-12-22T06:53:59.827Z,15.45
2017-12-22T06:56:46.876Z,15.02
2017-12-22T06:59:14.772Z,15.30
2017-12-22T07:01:42.616Z,15.35
2017-12-22T07:04:12.186Z,16.87
2017-12-22T07:06:39.702Z,15.60
2017-12-22T07:09:07.362Z,15.50
2017-12-22T07:11:35.141Z,14.82
2017-12-22T07:14:02.849Z,14.87
2017-12-22T07:16:30.399Z,15.40
2017-12-22T07:18:57.942Z,15.93
2017-12-22T07:21:36.894Z,16.10
2017-12-22T07:24:04.395Z,16.12
2017-12-22T07:26:31.973Z,16.30
2017-12-22T07:28:59.455Z,14.80
2017-12-22T07:31:26.978Z,15.98
2017-12-22T07:33:54.486Z,15.35
2017-12-22T07:36:21.968Z,15.13
2017-12-22T07:38:50.234Z,17.87
2017-12-22T07:41:17.779Z,14.73
2017-12-22T07:43:45.263Z,15.98
2017-12-22T07:46:13.521Z,16.00
2017-12-22T07:48:40.983Z,14.10
2017-12-22T07:51:08.446Z,15.23
2017-12-22T07:53:35.915Z,15.60
2017-12-22T07:56:04.166Z,16.73
2017-12-22T07:58:31.655Z,15.20
2017-12-22T08:00:59.148Z,15.95
2017-12-22T08:03:26.611Z,14.87
2017-12-22T08:05:54.099Z,13.85
2017-12-22T08:08:21.562Z,15.88
2017-12-22T08:10:49.019Z,17.00
2017-12-22T08:13:17.268Z,14.68
2017-12-22T08:15:44.758Z,13.65
2017-12-22T08:18:12.218Z,14.75
2017-12-22T08:20:40.486Z,12.95
2017-12-22T08:23:08.736Z,13.90
2017-12-22T08:25:36.222Z,17.12
2017-12-22T08:28:03.724Z,14.85
2017-12-22T08:30:31.195Z,14.73
2017-12-22T08:32:58.667Z,14.93
2017-12-22T08:35:26.146Z,14.68
2017-12-22T08:37:53.617Z,14.68
2017-12-22T08:40:21.130Z,15.35
2017-12-22T08:42:48.624Z,15.40
2017-12-22T08:45:16.852Z,16.85
2017-12-22T08:47:44.326Z,15.48
2017-12-22T08:50:11.796Z,15.38
2017-12-22T08:52:39.266Z,15.38
2017-12-22T08:55:07.525Z,14.95
2017-12-22T08:57:34.989Z,15.20
2017-12-22T09:00:02.481Z,16.20
2017-12-22T09:02:29.953Z,15.82
2017-12-22T09:04:57.398Z,14.50
2017-12-22T09:07:24.841Z,15.68
2017-12-22T09:09:52.297Z,14.40
2017-12-22T09:12:19.770Z,15.20
2017-12-22T09:14:47.314Z,14.52
2017-12-22T09:17:14.867Z,15.73
2017-12-22T09:19:43.146Z,14.00
2017-12-22T09:22:10.662Z,14.93
2017-12-22T09:24:38.166Z,14.60
2017-12-22T09:27:05.667Z,16.02
2017-12-22T09:29:33.184Z,17.27
2017-12-22T09:32:00.747Z,17.58
2017-12-22T09:34:28.315Z,15.20
2017-12-22T09:36:55.827Z,15.43
2017-12-22T09:39:23.395Z,16.20
2017-12-22T09:41:50.937Z,14.87
2017-12-22T09:44:18.446Z,15.45
2017-12-22T09:46:46.007Z,18.12
2017-12-22T09:49:13.595Z,16.05
2017-12-22T09:51:41.122Z,16.67
2017-12-22T09:54:08.705Z,17.80
2017-12-22T09:56:36.231Z,15.15
2017-12-22T09:59:03.775Z,16.00
2017-12-22T10:01:31.375Z,16.90
2017-12-22T10:03:58.894Z,15.32
2017-12-22T10:06:26.380Z,17.27
2017-12-22T10:08:53.878Z,16.77
2017-12-22T10:11:21.374Z,17.98
2017-12-22T10:13:50.559Z,17.27
2017-12-22T10:16:18.179Z,16.98
2017-12-22T10:18:47.655Z,15.13
2017-12-22T10:21:15.206Z,15.02
2017-12-22T10:23:42.649Z,16.58
2017-12-22T10:26:10.996Z,16.83
2017-12-22T10:28:38.470Z,15.85
2017-12-22T10:31:06.055Z,16.60
2017-12-22T10:33:34.298Z,14.55
2017-12-22T10:36:01.773Z,15.98
2017-12-22T10:38:29.634Z,14.95
2017-12-22T10:40:57.142Z,16.25
2017-12-22T10:43:24.616Z,13.93
2017-12-22T10:45:52.154Z,13.65
2017-12-22T10:48:19.618Z,14.23
2017-12-22T10:50:47.097Z,14.73
2017-12-22T10:53:14.600Z,13.88
2017-12-22T10:55:42.137Z,12.82
2017-12-22T10:58:09.782Z,12.63
2017-12-22T11:00:37.336Z,13.88
2017-12-22T11:03:04.868Z,13.40
2017-12-22T11:05:32.400Z,13.20
2017-12-22T11:07:59.880Z,12.02
2017-12-22T11:10:27.372Z,11.98
2017-12-22T11:12:54.856Z,12.00
2017-12-22T11:15:23.268Z,12.75
2017-12-22T11:17:50.771Z,13.90
2017-12-22T11:20:18.256Z,11.93
2017-12-22T11:22:45.726Z,11.18
2017-12-22T11:25:13.218Z,11.95
2017-12-22T11:27:40.710Z,12.20
2017-12-22T11:30:08.195Z,11.80
2017-12-22T11:32:36.537Z,12.25
2017-12-22T11:35:04.215Z,11.40
2017-12-22T11:37:33.012Z,11.80
2017-12-22T11:40:26.440Z,12.40
2017-12-22T11:43:09.690Z,12.57
2017-12-22T11:45:41.048Z,13.15
2017-12-22T11:48:12.872Z,12.10
2017-12-22T11:53:31.847Z,11.57
2017-12-22T11:55:59.358Z,11.45
2017-12-22T11:58:26.863Z,10.43
2017-12-22T12:00:54.339Z,10.50
2017-12-22T12:03:21.823Z,10.43
2017-12-22T12:05:51.046Z,11.30
2017-12-22T12:08:18.534Z,10.52
2017-12-22T12:10:46.016Z,11.15
2017-12-22T12:13:14.826Z,10.10
2017-12-22T12:15:42.294Z,9.77
2017-12-22T12:18:09.744Z,9.43
2017-12-22T12:20:37.223Z,9.73
2017-12-22T12:23:04.759Z,8.43
2017-12-22T12:25:32.302Z,9.50
2017-12-22T12:28:00.571Z,8.88
2017-12-22T12:30:29.179Z,11.40
2017-12-22T12:32:56.666Z,9.75
2017-12-22T12:35:38.859Z,12.00
2017-12-22T12:38:06.378Z,9.25
2017-12-22T12:43:45.267Z,10.30
2017-12-22T12:46:29.176Z,9.90
2017-12-22T12:48:59.571Z,10.38
2017-12-22T12:51:27.159Z,10.65
2017-12-22T12:53:54.644Z,10.63
2017-12-22T12:56:22.220Z,11.65
2017-12-22T12:58:49.732Z,14.30
2017-12-22T13:01:17.999Z,12.07
2017-12-22T13:03:46.276Z,11.63
2017-12-22T13:06:14.523Z,12.45
2017-12-22T13:08:42.007Z,11.50
2017-12-22T13:11:09.496Z,12.15
2017-12-22T13:13:36.957Z,10.48
2017-12-22T13:16:04.438Z,10.00
2017-12-22T13:18:31.936Z,11.70
2017-12-22T13:20:59.425Z,10.55
2017-12-22T13:23:28.291Z,11.73
2017-12-22T13:25:55.826Z,12.23
2017-12-22T13:28:25.302Z,11.02
2017-12-22T13:30:52.879Z,12.32
2017-12-22T13:33:20.373Z,12.65
2017-12-22T13:35:51.025Z,12.80
2017-12-22T13:38:18.506Z,12.63
2017-12-22T13:40:45.971Z,12.50
2017-12-22T13:43:13.444Z,13.05
2017-12-22T13:45:40.946Z,11.07
2017-12-22T13:48:08.537Z,9.70
2017-12-22T13:50:36.097Z,10.18
2017-12-22T13:53:03.615Z,8.75
2017-12-22T13:55:38.589Z,8.38
2017-12-22T13:58:10.005Z,7.95
2017-12-22T14:00:37.667Z,7.62
2017-12-22T14:03:05.220Z,7.28
2017-12-22T14:05:33.629Z,7.90
2017-12-22T14:08:01.261Z,7.70
2017-12-22T14:10:28.799Z,7.68
2017-12-22T14:12:57.521Z,8.20
2017-12-22T14:20:58.470Z,8.35
2017-12-22T14:23:27.159Z,7.30
2017-12-22T14:26:24.488Z,7.68
2017-12-22T14:35:07.439Z,7.15
2017-12-22T14:37:57.550Z,7.35
2017-12-22T14:40:52.651Z,7.35
2017-12-22T14:43:27.872Z,7.60
2017-12-22T14:46:00.725Z,7.00
2017-12-22T14:48:36.194Z,6.90
2017-12-22T14:54:07.304Z,7.62
2017-12-22T15:02:44.620Z,7.30
2017-12-22T15:05:14.057Z,6.82
2017-12-22T15:10:42.683Z,7.90
2017-12-22T15:18:00.550Z,8.80
2017-12-22T15:20:36.503Z,8.93
2017-12-22T15:23:04.175Z,10.60
2017-12-22T15:25:32.460Z,9.13
2017-12-22T15:28:00.974Z,8.88
2017-12-22T15:30:28.622Z,9.05
2017-12-22T15:32:56.891Z,11.18
2017-12-22T15:35:24.357Z,9.55
2017-12-22T15:37:51.915Z,10.00
2017-12-22T15:40:24.189Z,8.40
2017-12-22T15:42:54.315Z,9.85
2017-12-22T15:45:31.167Z,10.07
2017-12-22T15:48:01.701Z,11.25
2017-12-22T15:50:29.204Z,8.85
2017-12-22T15:52:56.684Z,9.88
2017-12-22T15:55:24.223Z,10.55
2017-12-22T15:57:51.714Z,8.57
2017-12-22T16:00:19.507Z,10.85
2017-12-22T16:02:47.034Z,9.15
2017-12-22T16:05:14.552Z,9.90
2017-12-22T16:07:42.051Z,10.88
2017-12-22T16:10:10.559Z,12.27
2017-12-22T16:12:38.117Z,10.60
2017-12-22T16:15:06.811Z,11.52
2017-12-22T16:17:34.508Z,11.32
2017-12-22T16:20:01.990Z,10.73
2017-12-22T16:22:29.510Z,10.30
2017-12-22T16:24:56.991Z,14.50
2017-12-22T16:27:29.086Z,10.75
2017-12-22T16:29:59.017Z,11.35
2017-12-22T16:32:26.977Z,10.75
2017-12-22T16:34:54.583Z,11.15
2017-12-22T16:37:37.079Z,11.98
2017-12-22T16:40:04.589Z,11.63
2017-12-22T16:42:32.386Z,12.07
2017-12-22T16:45:00.142Z,13.57
2017-12-22T16:47:27.691Z,11.38
2017-12-22T16:49:55.359Z,13.35
2017-12-22T16:52:23.072Z,12.57
2017-12-22T16:54:50.754Z,14.00
2017-12-22T16:57:18.261Z,12.45
2017-12-22T16:59:45.916Z,12.15
2017-12-22T17:02:22.954Z,12.50
2017-12-22T17:04:50.527Z,14.90
2017-12-22T17:07:18.037Z,13.60
2017-12-22T17:09:47.480Z,12.43
2017-12-22T17:12:16.690Z,13.50
2017-12-22T17:14:45.262Z,12.50
2017-12-22T17:17:12.765Z,13.80
2017-12-22T17:19:40.307Z,14.85
2017-12-22T17:22:07.827Z,13.70
2017-12-22T17:24:35.346Z,13.20
2017-12-22T17:27:02.844Z,14.48
2017-12-22T17:29:30.347Z,15.35
2017-12-22T17:31:58.786Z,17.00
2017-12-22T17:34:26.254Z,15.73
2017-12-22T17:36:53.707Z,16.37
2017-12-22T17:39:21.308Z,15.13
2017-12-22T17:41:49.538Z,16.30
2017-12-22T17:44:17.140Z,15.60
2017-12-22T17:46:44.659Z,15.98
2017-12-22T17:49:12.149Z,16.25
2017-12-22T17:51:40.385Z,16.62
2017-12-22T17:54:07.850Z,14.27
2017-12-22T17:56:35.311Z,16.40
2017-12-22T17:59:02.807Z,15.65
2017-12-22T18:01:31.046Z,15.63
2017-12-22T18:03:58.537Z,15.82
2017-12-22T18:06:29.343Z,17.08
2017-12-22T18:08:56.912Z,14.93
2017-12-22T18:11:28.380Z,15.80
2017-12-22T18:22:36.798Z,16.62
2017-12-22T18:25:05.355Z,15.75
2017-12-22T18:30:44.779Z,17.15
2017-12-22T18:33:15.227Z,18.75
2017-12-22T18:35:43.039Z,18.30
2017-12-22T18:38:13.361Z,17.92
2017-12-22T18:40:44.360Z,17.25
2017-12-22T18:43:16.612Z,15.20
2017-12-22T18:45:44.499Z,16.12
2017-12-22T18:48:12.211Z,16.40
2017-12-22T18:50:39.971Z,17.62
2017-12-22T18:53:08.675Z,15.65
2017-12-22T18:55:37.713Z,14.60
2017-12-22T18:58:05.519Z,15.30
2017-12-22T19:00:33.369Z,15.57
2017-12-22T19:03:00.995Z,17.05
2017-12-22T19:05:28.615Z,15.50
2017-12-22T19:07:56.978Z,15.77
2017-12-22T19:10:25.516Z,17.23
2017-12-22T19:12:54.477Z,15.20
2017-12-22T19:15:22.402Z,16.62
2017-12-22T19:17:56.100Z,15.65
2017-12-22T19:20:23.628Z,16.50
2017-12-22T19:22:51.242Z,15.65
2017-12-22T19:25:18.827Z,15.40
2017-12-22T19:27:47.083Z,17.27
2017-12-22T19:30:15.638Z,15.98
2017-12-22T19:32:44.270Z,16.05
2017-12-22T19:35:11.775Z,16.83
2017-12-22T19:37:39.220Z,16.52
2017-12-22T19:40:06.667Z,17.60
2017-12-22T19:42:34.116Z,17.00
2017-12-22T19:45:02.351Z,17.15
2017-12-22T19:47:29.830Z,16.95
2017-12-22T19:49:57.286Z,17.42
2017-12-22T19:52:28.995Z,16.02
2017-12-22T19:54:57.686Z,15.98
2017-12-22T19:57:25.575Z,17.60
2017-12-22T21:43:40.858Z,22.23
2017-12-22T21:46:11.066Z,20.62
2017-12-22T21:48:38.665Z,22.65
2017-12-22T21:51:12.152Z,21.87
2017-12-22T21:59:37.252Z,23.27
2017-12-22T22:36:44.228Z,18.35
2017-12-22T22:39:27.407Z,21.37
2017-12-22T22:41:55.658Z,19.80
2017-12-22T22:44:28.868Z,18.05
2017-12-22T22:46:56.897Z,18.62
2017-12-22T22:49:24.705Z,18.27
2017-12-22T22:51:52.270Z,17.37
2017-12-22T22:54:19.842Z,17.15
2017-12-22T22:56:48.740Z,18.33
2017-12-22T22:59:24.937Z,18.27
2017-12-22T23:01:54.963Z,18.95
2017-12-22T23:04:22.714Z,18.48
2017-12-22T23:09:37.363Z,17.40
2017-12-22T23:12:16.944Z,18.70
2017-12-22T23:17:56.506Z,18.92
2017-12-22T23:20:28.093Z,19.37
2017-12-22T23:23:09.560Z,19.05
2017-12-22T23:25:50.712Z,20.33
